Aérodrome :
LOGIN :

S'inscrire | Disclaimer

   EN    FR    IT 

 










Légende :    VFR   VFR Marginal   IFR   IFR Intensif   IFR Très Intensif
Visi : 
Plafond : 
>= 8 km
>= 3000ft
5 à 8 km
1000 à 3000 ft
1500m à 5 km
500 à 1000 ft
800 à 1500m
200 à 500 ft
< 800m
< 200 ft
Symboles :   Orages  Brouillard  Fortes neiges  Fortes précipitations  Vent > 20 kt
SIGMETs :   Divers  Orages  Givrage  Turbulence  Onde Orograph.  Cendres Volcan.







- Altitude de l'aérodrome : 41 ft


LIRE - Pratica di Mare Air Base Pomezia

DERNIER METAR :
  • 121455Z 15010KT 5000 BR BKN015 SCT030 16/16 Q1013 RMK OVC VIS MIN 5000 WIND THR13 16008KT WIND THR31 /////KT WHT

METARs EXPIRÉS :
  • 121355Z 12013KT 5000 BR BKN015 SCT030 17/16 Q1013 RMK OVC VIS MIN 5000 WIND THR13 16009KT WIND THR31 /////KT WHT
  • 121255Z 15014KT 5000 BR SCT020 BKN030 17/15 Q1013 RMK OVC VIS MIN 5000 WIND THR13 16010KT WIND THR31 /////KT WHT

TAF TAF LIRE
Valide du 12 à 15h jusqu'au 13 à 00h UTC


121400Z 1215/1224 18016KT 5000 BR SCT020 BKN030
TEMPO 1215/1217 5000 RA BR
TEMPO 1217/1224 3000 SHRA FEW018TCU BKN020
BECMG 1221/1223 27014KT
Pas de NOTAMs connus pour ce terrain.



MET'MAP, la Météo Aéronautique d'un coup d'oeil ! - Copyright ORBIFLY Décembre 2007 - Disclaimer

ORBIFLY MET'MAP TEAM :

Programmation & Développement : Alexandra Zaïnal
Conception & Développement : Baudouin d'Aumeries
Co-Programmation & Développement : Marc-Olivier Méhu
Soutien technique & logistique : Manuel Goepfert

Contact : metmap@orbifly.com




SOURCES & CREDITS :

   NOAA